Station Historical Data
Daily Summary for June 25, 2017 Units:  Both    English   Metric
« Previous Day
Next Day »
Daily Weekly Monthly Yearly Custom
  High: Low: Average:
Temperature: 73.9 °F /  23.3 °C 59.2 °F /  15.1 °C 66.8 °F /  19.3 °C
Dew Point: 58.5 °F /  14.7 °C 49.1 °F /  9.5 °C 54.3 °F /  12.4 °C
Humidity: 86% 47% 65%
Wind Speed: 16.0mph /  25.7km/h - 5.1mph /  8.2km/h
Wind Gust: 25.0mph /  40.2km/h - -
Wind- - WSW
Pressure: 29.98 in /  1015.1 hPa 29.91 in /  1012.8 hPa -
Precipitation: 0.00 in /  0 mm    
Historical Graphs
 
 
Tabular Data for June 25, 2017
Time Temperature Dew Point Pressure Wind Wind Speed Wind Gust Humidity Rainfall Rate (Hourly)
00:04 65.2 °F /  18.4 °C 55.6 °F /  13.1 °C 29.91in /  1012.8hPa Calm   2.0mph /  3.2km/h 71% 0.00in /  0mm
00:09 65.4 °F /  18.6 °C 55.7 °F /  13.2 °C 29.91in /  1012.8hPa Calm   3.0mph /  4.8km/h 71% 0.00in /  0mm
00:14 65.5 °F /  18.6 °C 55.5 °F /  13.1 °C 29.92in /  1013.1hPa SW 2.0mph /  3.2km/h 3.0mph /  4.8km/h 70% 0.00in /  0mm
00:19 65.5 °F /  18.6 °C 55.1 °F /  12.8 °C 29.92in /  1013.1hPa Calm   2.0mph /  3.2km/h 69% 0.00in /  0mm
00:24 65.5 °F /  18.6 °C 55.1 °F /  12.8 °C 29.92in /  1013.1hPa Calm     69% 0.00in /  0mm
00:29 65.5 °F /  18.6 °C 54.7 °F /  12.6 °C 29.92in /  1013.1hPa SW 1.0mph /  1.6km/h 5.0mph /  8km/h 68% 0.00in /  0mm
00:34 65.4 °F /  18.6 °C 54.6 °F /  12.6 °C 29.92in /  1013.1hPa WSW 1.0mph /  1.6km/h 3.0mph /  4.8km/h 68% 0.00in /  0mm
00:39 65.5 °F /  18.6 °C 54.2 °F /  12.3 °C 29.92in /  1013.1hPa WSW 3.0mph /  4.8km/h 3.0mph /  4.8km/h 67% 0.00in /  0mm
00:44 65.5 °F /  18.6 °C 54.7 °F /  12.6 °C 29.92in /  1013.1hPa Calm   3.0mph /  4.8km/h 68% 0.00in /  0mm
00:49 65.4 °F /  18.6 °C 54.2 °F /  12.3 °C 29.92in /  1013.1hPa WSW 1.0mph /  1.6km/h 4.0mph /  6.4km/h 67% 0.00in /  0mm
00:54 65.3 °F /  18.5 °C 54.5 °F /  12.5 °C 29.92in /  1013.1hPa SW 1.0mph /  1.6km/h 4.0mph /  6.4km/h 68% 0.00in /  0mm
00:59 65.1 °F /  18.4 °C 54.3 °F /  12.4 °C 29.92in /  1013.1hPa SW 2.0mph /  3.2km/h 5.0mph /  8km/h 68% 0.00in /  0mm
01:05 65.1 °F /  18.4 °C 54.7 °F /  12.6 °C 29.92in /  1013.1hPa SW 2.0mph /  3.2km/h 5.0mph /  8km/h 69% 0.00in /  0mm
01:10 65.2 °F /  18.4 °C 54.8 °F /  12.7 °C 29.92in /  1013.1hPa SSW 3.0mph /  4.8km/h 6.0mph /  9.7km/h 69% 0.00in /  0mm
01:15 65.2 °F /  18.4 °C 55.6 °F /  13.1 °C 29.92in /  1013.1hPa SW 1.0mph /  1.6km/h 7.0mph /  11.3km/h 71% 0.00in /  0mm
01:20 64.9 °F /  18.3 °C 55.7 °F /  13.2 °C 29.92in /  1013.1hPa SW 5.0mph /  8km/h 7.0mph /  11.3km/h 72% 0.00in /  0mm
01:25 64.5 °F /  18.1 °C 55.7 °F /  13.2 °C 29.92in /  1013.1hPa SSW 1.0mph /  1.6km/h 7.0mph /  11.3km/h 73% 0.00in /  0mm
01:30 63.9 °F /  17.7 °C 55.8 °F /  13.2 °C 29.93in /  1013.4hPa SW 2.0mph /  3.2km/h 7.0mph /  11.3km/h 75% 0.00in /  0mm
01:35 63.7 °F /  17.6 °C 56.0 °F /  13.3 °C 29.93in /  1013.4hPa SW 2.0mph /  3.2km/h 6.0mph /  9.7km/h 76% 0.00in /  0mm
01:40 63.4 °F /  17.4 °C 56.1 °F /  13.4 °C 29.93in /  1013.4hPa SW 2.0mph /  3.2km/h 5.0mph /  8km/h 77% 0.00in /  0mm
01:45 63.3 °F /  17.4 °C 56.3 °F /  13.5 °C 29.93in /  1013.4hPa Calm   4.0mph /  6.4km/h 78% 0.00in /  0mm
01:50 63.4 °F /  17.4 °C 56.8 °F /  13.8 °C 29.93in /  1013.4hPa WSW 2.0mph /  3.2km/h 4.0mph /  6.4km/h 79% 0.00in /  0mm
01:55 63.4 °F /  17.4 °C 56.8 °F /  13.8 °C 29.93in /  1013.4hPa Calm   5.0mph /  8km/h 79% 0.00in /  0mm
02:00 63.2 °F /  17.3 °C 56.6 °F /  13.7 °C 29.92in /  1013.1hPa WSW 1.0mph /  1.6km/h 5.0mph /  8km/h 79% 0.00in /  0mm
02:05 62.8 °F /  17.1 °C 56.5 °F /  13.6 °C 29.93in /  1013.4hPa WSW 1.0mph /  1.6km/h 3.0mph /  4.8km/h 80% 0.00in /  0mm
02:10 62.7 °F /  17.1 °C 56.8 °F /  13.8 °C 29.93in /  1013.4hPa SW 2.0mph /  3.2km/h 4.0mph /  6.4km/h 81% 0.00in /  0mm
02:15 62.5 °F /  16.9 °C 56.6 °F /  13.7 °C 29.93in /  1013.4hPa Calm   4.0mph /  6.4km/h 81% 0.00in /  0mm
02:20 62.4 °F /  16.9 °C 56.5 °F /  13.6 °C 29.93in /  1013.4hPa SSW 1.0mph /  1.6km/h 4.0mph /  6.4km/h 81% 0.00in /  0mm
02:25 62.3 °F /  16.8 °C 56.4 °F /  13.6 °C 29.93in /  1013.4hPa SW 1.0mph /  1.6km/h 5.0mph /  8km/h 81% 0.00in /  0mm
02:30 62.6 °F /  17 °C 56.7 °F /  13.7 °C 29.93in /  1013.4hPa SW 2.0mph /  3.2km/h 6.0mph /  9.7km/h 81% 0.00in /  0mm
02:35 62.5 °F /  16.9 °C 56.6 °F /  13.7 °C 29.93in /  1013.4hPa SW 2.0mph /  3.2km/h 6.0mph /  9.7km/h 81% 0.00in /  0mm
02:40 62.4 °F /  16.9 °C 56.5 °F /  13.6 °C 29.93in /  1013.4hPa Calm   3.0mph /  4.8km/h 81% 0.00in /  0mm
02:45 62.0 °F /  16.7 °C 56.1 °F /  13.4 °C 29.92in /  1013.1hPa WSW 1.0mph /  1.6km/h 3.0mph /  4.8km/h 81% 0.00in /  0mm
02:50 61.7 °F /  16.5 °C 56.1 °F /  13.4 °C 29.93in /  1013.4hPa Calm     82% 0.00in /  0mm
02:55 61.3 °F /  16.3 °C 55.8 °F /  13.2 °C 29.93in /  1013.4hPa Calm     82% 0.00in /  0mm
03:00 61.0 °F /  16.1 °C 55.8 °F /  13.2 °C 29.93in /  1013.4hPa Calm   1.0mph /  1.6km/h 83% 0.00in /  0mm
03:05 60.8 °F /  16 °C 55.6 °F /  13.1 °C 29.93in /  1013.4hPa Calm   4.0mph /  6.4km/h 83% 0.00in /  0mm
03:10 60.6 °F /  15.9 °C 55.4 °F /  13 °C 29.93in /  1013.4hPa SW 1.0mph /  1.6km/h 4.0mph /  6.4km/h 83% 0.00in /  0mm
03:15 60.2 °F /  15.7 °C 55.0 °F /  12.8 °C 29.92in /  1013.1hPa SSW 1.0mph /  1.6km/h 3.0mph /  4.8km/h 83% 0.00in /  0mm
03:20 59.9 °F /  15.5 °C 54.7 °F /  12.6 °C 29.93in /  1013.4hPa South 2.0mph /  3.2km/h 3.0mph /  4.8km/h 83% 0.00in /  0mm
03:25 59.6 °F /  15.3 °C 54.4 °F /  12.4 °C 29.93in /  1013.4hPa Calm   4.0mph /  6.4km/h 83% 0.00in /  0mm
03:30 59.4 °F /  15.2 °C 54.6 °F /  12.6 °C 29.93in /  1013.4hPa South 1.0mph /  1.6km/h 4.0mph /  6.4km/h 84% 0.00in /  0mm
03:35 59.4 °F /  15.2 °C 54.6 °F /  12.6 °C 29.92in /  1013.1hPa SSE 2.0mph /  3.2km/h 4.0mph /  6.4km/h 84% 0.00in /  0mm
03:40 59.2 °F /  15.1 °C 54.4 °F /  12.4 °C 29.92in /  1013.1hPa SSE 1.0mph /  1.6km/h 3.0mph /  4.8km/h 84% 0.00in /  0mm
03:45 59.2 °F /  15.1 °C 54.4 °F /  12.4 °C 29.93in /  1013.4hPa Calm   3.0mph /  4.8km/h 84% 0.00in /  0mm
03:50 59.2 °F /  15.1 °C 54.7 °F /  12.6 °C 29.92in /  1013.1hPa Calm   5.0mph /  8km/h 85% 0.00in /  0mm
03:55 59.2 °F /  15.1 °C 54.7 °F /  12.6 °C 29.92in /  1013.1hPa South 2.0mph /  3.2km/h 5.0mph /  8km/h 85% 0.00in /  0mm
04:00 59.2 °F /  15.1 °C 54.7 °F /  12.6 °C 29.92in /  1013.1hPa South 2.0mph /  3.2km/h 4.0mph /  6.4km/h 85% 0.00in /  0mm
04:05 59.3 °F /  15.2 °C 54.8 °F /  12.7 °C 29.92in /  1013.1hPa Calm   3.0mph /  4.8km/h 85% 0.00in /  0mm
04:10 59.5 °F /  15.3 °C 55.3 °F /  12.9 °C 29.92in /  1013.1hPa SSW 2.0mph /  3.2km/h 4.0mph /  6.4km/h 86% 0.00in /  0mm
04:15 59.8 °F /  15.4 °C 55.3 °F /  12.9 °C 29.92in /  1013.1hPa Calm   5.0mph /  8km/h 85% 0.00in /  0mm
04:20 59.8 °F /  15.4 °C 55.3 °F /  12.9 °C 29.92in /  1013.1hPa Calm   3.0mph /  4.8km/h 85% 0.00in /  0mm
04:25 59.6 °F /  15.3 °C 55.1 °F /  12.8 °C 29.92in /  1013.1hPa Calm     85% 0.00in /  0mm
04:30 59.8 °F /  15.4 °C 55.6 °F /  13.1 °C 29.92in /  1013.1hPa Calm     86% 0.00in /  0mm
04:35 60.9 °F /  16.1 °C 56.4 °F /  13.6 °C 29.92in /  1013.1hPa WSW 2.0mph /  3.2km/h 10.0mph /  16.1km/h 85% 0.00in /  0mm
04:40 62.3 °F /  16.8 °C 56.0 °F /  13.3 °C 29.93in /  1013.4hPa SW 5.0mph /  8km/h 11.0mph /  17.7km/h 80% 0.00in /  0mm
04:45 62.9 °F /  17.2 °C 55.2 °F /  12.9 °C 29.93in /  1013.4hPa WSW 6.0mph /  9.7km/h 10.0mph /  16.1km/h 76% 0.00in /  0mm
04:50 62.9 °F /  17.2 °C 54.5 °F /  12.5 °C 29.93in /  1013.4hPa WSW 6.0mph /  9.7km/h 9.0mph /  14.5km/h 74% 0.00in /  0mm
04:55 62.9 °F /  17.2 °C 54.5 °F /  12.5 °C 29.92in /  1013.1hPa West 4.0mph /  6.4km/h 9.0mph /  14.5km/h 74% 0.00in /  0mm
05:00 62.8 °F /  17.1 °C 54.4 °F /  12.4 °C 29.92in /  1013.1hPa West 4.0mph /  6.4km/h 8.0mph /  12.9km/h 74% 0.00in /  0mm
05:05 62.6 °F /  17 °C 54.6 °F /  12.6 °C 29.92in /  1013.1hPa WSW 3.0mph /  4.8km/h 8.0mph /  12.9km/h 75% 0.00in /  0mm
05:10 62.6 °F /  17 °C 54.6 °F /  12.6 °C 29.92in /  1013.1hPa West 5.0mph /  8km/h 6.0mph /  9.7km/h 75% 0.00in /  0mm
05:15 62.4 °F /  16.9 °C 54.7 °F /  12.6 °C 29.93in /  1013.4hPa West 2.0mph /  3.2km/h 5.0mph /  8km/h 76% 0.00in /  0mm
05:20 62.3 °F /  16.8 °C 55.0 °F /  12.8 °C 29.93in /  1013.4hPa West 2.0mph /  3.2km/h 4.0mph /  6.4km/h 77% 0.00in /  0mm
05:25 62.2 °F /  16.8 °C 54.9 °F /  12.7 °C 29.93in /  1013.4hPa WSW 2.0mph /  3.2km/h 5.0mph /  8km/h 77% 0.00in /  0mm
05:30 62.1 °F /  16.7 °C 55.2 °F /  12.9 °C 29.93in /  1013.4hPa WSW 2.0mph /  3.2km/h 5.0mph /  8km/h 78% 0.00in /  0mm
05:35 62.1 °F /  16.7 °C 55.2 °F /  12.9 °C 29.93in /  1013.4hPa WSW 2.0mph /  3.2km/h 5.0mph /  8km/h 78% 0.00in /  0mm
05:40 62.0 °F /  16.7 °C 55.4 °F /  13 °C 29.93in /  1013.4hPa West 2.0mph /  3.2km/h 7.0mph /  11.3km/h 79% 0.00in /  0mm
05:45 61.9 °F /  16.6 °C 55.3 °F /  12.9 °C 29.93in /  1013.4hPa West 3.0mph /  4.8km/h 6.0mph /  9.7km/h 79% 0.00in /  0mm
05:50 62.2 °F /  16.8 °C 55.3 °F /  12.9 °C 29.93in /  1013.4hPa West 4.0mph /  6.4km/h 10.0mph /  16.1km/h 78% 0.00in /  0mm
05:54 62.6 °F /  17 °C 54.9 °F /  12.7 °C 29.93in /  1013.4hPa WSW 4.0mph /  6.4km/h 10.0mph /  16.1km/h 76% 0.00in /  0mm
06:00 62.9 °F /  17.2 °C 55.2 °F /  12.9 °C 29.93in /  1013.4hPa WSW 2.0mph /  3.2km/h 7.0mph /  11.3km/h 76% 0.00in /  0mm
06:05 62.7 °F /  17.1 °C 55.0 °F /  12.8 °C 29.94in /  1013.8hPa Calm   6.0mph /  9.7km/h 76% 0.00in /  0mm
06:10 62.9 °F /  17.2 °C 55.6 °F /  13.1 °C 29.93in /  1013.4hPa West 3.0mph /  4.8km/h 7.0mph /  11.3km/h 77% 0.00in /  0mm
06:15 62.8 °F /  17.1 °C 55.8 °F /  13.2 °C 29.93in /  1013.4hPa West 3.0mph /  4.8km/h 7.0mph /  11.3km/h 78% 0.00in /  0mm
06:20 62.9 °F /  17.2 °C 55.9 °F /  13.3 °C 29.93in /  1013.4hPa West 3.0mph /  4.8km/h 7.0mph /  11.3km/h 78% 0.00in /  0mm
06:24 62.9 °F /  17.2 °C 55.9 °F /  13.3 °C 29.93in /  1013.4hPa West 3.0mph /  4.8km/h 7.0mph /  11.3km/h 78% 0.00in /  0mm
06:30 62.8 °F /  17.1 °C 56.2 °F /  13.4 °C 29.93in /  1013.4hPa West 3.0mph /  4.8km/h 8.0mph /  12.9km/h 79% 0.00in /  0mm
06:35 62.6 °F /  17 °C 56.0 °F /  13.3 °C 29.93in /  1013.4hPa West 4.0mph /  6.4km/h 8.0mph /  12.9km/h 79% 0.00in /  0mm
06:40 62.7 °F /  17.1 °C 56.1 °F /  13.4 °C 29.94in /  1013.8hPa West 3.0mph /  4.8km/h 6.0mph /  9.7km/h 79% 0.00in /  0mm
06:45 62.8 °F /  17.1 °C 55.8 °F /  13.2 °C 29.94in /  1013.8hPa WSW 3.0mph /  4.8km/h 5.0mph /  8km/h 78% 0.00in /  0mm
06:50 63.0 °F /  17.2 °C 55.7 °F /  13.2 °C 29.94in /  1013.8hPa WSW 3.0mph /  4.8km/h 7.0mph /  11.3km/h 77% 0.00in /  0mm
06:55 63.1 °F /  17.3 °C 55.8 °F /  13.2 °C 29.94in /  1013.8hPa West 3.0mph /  4.8km/h 8.0mph /  12.9km/h 77% 0.00in /  0mm
07:00 63.2 °F /  17.3 °C 55.9 °F /  13.3 °C 29.94in /  1013.8hPa WSW 2.0mph /  3.2km/h 6.0mph /  9.7km/h 77% 0.00in /  0mm
07:05 63.4 °F /  17.4 °C 55.7 °F /  13.2 °C 29.94in /  1013.8hPa WNW 2.0mph /  3.2km/h 7.0mph /  11.3km/h 76% 0.00in /  0mm
07:10 63.7 °F /  17.6 °C 55.6 °F /  13.1 °C 29.94in /  1013.8hPa West 4.0mph /  6.4km/h 5.0mph /  8km/h 75% 0.00in /  0mm
07:15 64.0 °F /  17.8 °C 55.5 °F /  13.1 °C 29.94in /  1013.8hPa West 1.0mph /  1.6km/h 5.0mph /  8km/h 74% 0.00in /  0mm
07:20 64.5 °F /  18.1 °C 55.7 °F /  13.2 °C 29.94in /  1013.8hPa WSW 3.0mph /  4.8km/h 6.0mph /  9.7km/h 73% 0.00in /  0mm
07:25 64.9 °F /  18.3 °C 54.9 °F /  12.7 °C 29.94in /  1013.8hPa WSW 3.0mph /  4.8km/h 7.0mph /  11.3km/h 70% 0.00in /  0mm
07:30 65.2 °F /  18.4 °C 54.8 °F /  12.7 °C 29.94in /  1013.8hPa West 3.0mph /  4.8km/h 9.0mph /  14.5km/h 69% 0.00in /  0mm
07:35 65.3 °F /  18.5 °C 54.9 °F /  12.7 °C 29.94in /  1013.8hPa West 4.0mph /  6.4km/h 9.0mph /  14.5km/h 69% 0.00in /  0mm
07:40 65.4 °F /  18.6 °C 54.2 °F /  12.3 °C 29.94in /  1013.8hPa West 5.0mph /  8km/h 10.0mph /  16.1km/h 67% 0.00in /  0mm
07:45 65.5 °F /  18.6 °C 54.7 °F /  12.6 °C 29.95in /  1014.1hPa WSW 5.0mph /  8km/h 11.0mph /  17.7km/h 68% 0.00in /  0mm
07:49 66.1 °F /  18.9 °C 54.8 °F /  12.7 °C 29.95in /  1014.1hPa West 5.0mph /  8km/h 13.0mph /  20.9km/h 67% 0.00in /  0mm
07:54 66.7 °F /  19.3 °C 55.0 °F /  12.8 °C 29.95in /  1014.1hPa West 3.0mph /  4.8km/h 10.0mph /  16.1km/h 66% 0.00in /  0mm
08:00 66.7 °F /  19.3 °C 55.0 °F /  12.8 °C 29.95in /  1014.1hPa SW 7.0mph /  11.3km/h 11.0mph /  17.7km/h 66% 0.00in /  0mm
08:05 66.2 °F /  19 °C 54.9 °F /  12.7 °C 29.95in /  1014.1hPa West 3.0mph /  4.8km/h 10.0mph /  16.1km/h 67% 0.00in /  0mm
08:10 66.5 °F /  19.2 °C 55.2 °F /  12.9 °C 29.95in /  1014.1hPa WSW 5.0mph /  8km/h 9.0mph /  14.5km/h 67% 0.00in /  0mm
08:14 67.0 °F /  19.4 °C 55.7 °F /  13.2 °C 29.95in /  1014.1hPa WSW 5.0mph /  8km/h 9.0mph /  14.5km/h 67% 0.00in /  0mm
08:20 67.3 °F /  19.6 °C 55.1 °F /  12.8 °C 29.95in /  1014.1hPa WSW 4.0mph /  6.4km/h 9.0mph /  14.5km/h 65% 0.00in /  0mm
08:25 67.4 °F /  19.7 °C 54.8 °F /  12.7 °C 29.96in /  1014.4hPa WSW 5.0mph /  8km/h 11.0mph /  17.7km/h 64% 0.00in /  0mm
08:30 67.9 °F /  19.9 °C 55.7 °F /  13.2 °C 29.95in /  1014.1hPa WSW 5.0mph /  8km/h 11.0mph /  17.7km/h 65% 0.00in /  0mm
08:35 68.0 °F /  20 °C 54.9 °F /  12.7 °C 29.95in /  1014.1hPa WSW 5.0mph /  8km/h 9.0mph /  14.5km/h 63% 0.00in /  0mm
08:40 68.1 °F /  20.1 °C 54.1 °F /  12.3 °C 29.96in /  1014.4hPa WNW 2.0mph /  3.2km/h 11.0mph /  17.7km/h 61% 0.00in /  0mm
08:45 68.2 °F /  20.1 °C 54.7 °F /  12.6 °C 29.96in /  1014.4hPa WSW 3.0mph /  4.8km/h 11.0mph /  17.7km/h 62% 0.00in /  0mm
08:49 68.5 °F /  20.3 °C 55.0 °F /  12.8 °C 29.96in /  1014.4hPa WSW 5.0mph /  8km/h 11.0mph /  17.7km/h 62% 0.00in /  0mm
08:55 68.4 °F /  20.2 °C 54.4 °F /  12.4 °C 29.96in /  1014.4hPa WSW 6.0mph /  9.7km/h 14.0mph /  22.5km/h 61% 0.00in /  0mm
09:00 68.6 °F /  20.3 °C 54.6 °F /  12.6 °C 29.96in /  1014.4hPa SW 13.0mph /  20.9km/h 13.0mph /  20.9km/h 61% 0.00in /  0mm
09:04 68.7 °F /  20.4 °C 54.7 °F /  12.6 °C 29.96in /  1014.4hPa SW 8.0mph /  12.9km/h 15.0mph /  24.1km/h 61% 0.00in /  0mm
09:09 68.9 °F /  20.5 °C 54.0 °F /  12.2 °C 29.96in /  1014.4hPa WSW 4.0mph /  6.4km/h 13.0mph /  20.9km/h 59% 0.00in /  0mm
09:14 68.9 °F /  20.5 °C 53.5 °F /  11.9 °C 29.96in /  1014.4hPa WSW 7.0mph /  11.3km/h 13.0mph /  20.9km/h 58% 0.00in /  0mm
09:19 68.7 °F /  20.4 °C 52.8 °F /  11.6 °C 29.96in /  1014.4hPa West 7.0mph /  11.3km/h 13.0mph /  20.9km/h 57% 0.00in /  0mm
09:25 69.1 °F /  20.6 °C 53.2 °F /  11.8 °C 29.96in /  1014.4hPa NNW 9.0mph /  14.5km/h 13.0mph /  20.9km/h 57% 0.00in /  0mm
09:30 69.4 °F /  20.8 °C 53.0 °F /  11.7 °C 29.96in /  1014.4hPa WNW 4.0mph /  6.4km/h 14.0mph /  22.5km/h 56% 0.00in /  0mm
09:35 69.4 °F /  20.8 °C 52.0 °F /  11.1 °C 29.96in /  1014.4hPa SW 7.0mph /  11.3km/h 16.0mph /  25.7km/h 54% 0.00in /  0mm
09:40 69.5 °F /  20.8 °C 52.1 °F /  11.2 °C 29.96in /  1014.4hPa WSW 10.0mph /  16.1km/h 15.0mph /  24.1km/h 54% 0.00in /  0mm
09:44 69.8 °F /  21 °C 52.4 °F /  11.3 °C 29.96in /  1014.4hPa WSW 7.0mph /  11.3km/h 15.0mph /  24.1km/h 54% 0.00in /  0mm
09:50 70.2 °F /  21.2 °C 53.8 °F /  12.1 °C 29.96in /  1014.4hPa WSW 7.0mph /  11.3km/h 14.0mph /  22.5km/h 56% 0.00in /  0mm
09:55 70.5 °F /  21.4 °C 51.5 °F /  10.8 °C 29.97in /  1014.8hPa WSW 7.0mph /  11.3km/h 14.0mph /  22.5km/h 51% 0.00in /  0mm
10:00 70.8 °F /  21.6 °C 52.3 °F /  11.3 °C 29.97in /  1014.8hPa West 6.0mph /  9.7km/h 12.0mph /  19.3km/h 52% 0.00in /  0mm
10:05 70.8 °F /  21.6 °C 51.2 °F /  10.7 °C 29.97in /  1014.8hPa WSW 6.0mph /  9.7km/h 14.0mph /  22.5km/h 50% 0.00in /  0mm
10:10 70.3 °F /  21.3 °C 50.2 °F /  10.1 °C 29.97in /  1014.8hPa WSW 7.0mph /  11.3km/h 16.0mph /  25.7km/h 49% 0.00in /  0mm
10:15 70.3 °F /  21.3 °C 51.3 °F /  10.7 °C 29.97in /  1014.8hPa WSW 8.0mph /  12.9km/h 16.0mph /  25.7km/h 51% 0.00in /  0mm
10:19 70.4 °F /  21.3 °C 51.9 °F /  11.1 °C 29.97in /  1014.8hPa West 4.0mph /  6.4km/h 13.0mph /  20.9km/h 52% 0.00in /  0mm
10:24 70.5 °F /  21.4 °C 52.5 °F /  11.4 °C 29.97in /  1014.8hPa West 5.0mph /  8km/h 13.0mph /  20.9km/h 53% 0.00in /  0mm
10:29 71.0 °F /  21.7 °C 54.5 °F /  12.5 °C 29.97in /  1014.8hPa West 10.0mph /  16.1km/h 14.0mph /  22.5km/h 56% 0.00in /  0mm
10:34 71.0 °F /  21.7 °C 54.5 °F /  12.5 °C 29.97in /  1014.8hPa West 10.0mph /  16.1km/h 12.0mph /  19.3km/h 56% 0.00in /  0mm
10:39 70.6 °F /  21.4 °C 52.1 °F /  11.2 °C 29.97in /  1014.8hPa WSW 7.0mph /  11.3km/h 17.0mph /  27.4km/h 52% 0.00in /  0mm
10:45 70.3 °F /  21.3 °C 52.9 °F /  11.6 °C 29.97in /  1014.8hPa WSW 8.0mph /  12.9km/h 17.0mph /  27.4km/h 54% 0.00in /  0mm
10:50 70.5 °F /  21.4 °C 54.0 °F /  12.2 °C 29.97in /  1014.8hPa SW 8.0mph /  12.9km/h 18.0mph /  29km/h 56% 0.00in /  0mm
10:55 70.6 °F /  21.4 °C 53.1 °F /  11.7 °C 29.97in /  1014.8hPa SW 10.0mph /  16.1km/h 16.0mph /  25.7km/h 54% 0.00in /  0mm
11:00 70.5 °F /  21.4 °C 52.5 °F /  11.4 °C 29.97in /  1014.8hPa WSW 3.0mph /  4.8km/h 18.0mph /  29km/h 53% 0.00in /  0mm
11:05 70.6 °F /  21.4 °C 50.5 °F /  10.3 °C 29.97in /  1014.8hPa WSW 9.0mph /  14.5km/h 19.0mph /  30.6km/h 49% 0.00in /  0mm
11:10 70.3 °F /  21.3 °C 50.8 °F /  10.4 °C 29.97in /  1014.8hPa WSW 8.0mph /  12.9km/h 19.0mph /  30.6km/h 50% 0.00in /  0mm
11:14 70.0 °F /  21.1 °C 49.4 °F /  9.7 °C 29.97in /  1014.8hPa WSW 9.0mph /  14.5km/h 16.0mph /  25.7km/h 48% 0.00in /  0mm
11:19 70.5 °F /  21.4 °C 51.0 °F /  10.6 °C 29.97in /  1014.8hPa NNW 5.0mph /  8km/h 16.0mph /  25.7km/h 50% 0.00in /  0mm
11:25 71.5 °F /  21.9 °C 53.5 °F /  11.9 °C 29.97in /  1014.8hPa WNW 7.0mph /  11.3km/h 15.0mph /  24.1km/h 53% 0.00in /  0mm
11:29 71.1 °F /  21.7 °C 52.6 °F /  11.4 °C 29.97in /  1014.8hPa SSW 9.0mph /  14.5km/h 16.0mph /  25.7km/h 52% 0.00in /  0mm
11:34 71.1 °F /  21.7 °C 54.1 °F /  12.3 °C 29.97in /  1014.8hPa SW 16.0mph /  25.7km/h 17.0mph /  27.4km/h 55% 0.00in /  0mm
11:39 70.6 °F /  21.4 °C 54.6 °F /  12.6 °C 29.97in /  1014.8hPa WSW 9.0mph /  14.5km/h 17.0mph /  27.4km/h 57% 0.00in /  0mm
11:44 71.1 °F /  21.7 °C 57.0 °F /  13.9 °C 29.96in /  1014.4hPa WSW 8.0mph /  12.9km/h 17.0mph /  27.4km/h 61% 0.00in /  0mm
11:50 70.8 °F /  21.6 °C 55.3 °F /  12.9 °C 29.96in /  1014.4hPa WSW 7.0mph /  11.3km/h 15.0mph /  24.1km/h 58% 0.00in /  0mm
11:55 71.0 °F /  21.7 °C 55.5 °F /  13.1 °C 29.96in /  1014.4hPa WNW 9.0mph /  14.5km/h 14.0mph /  22.5km/h 58% 0.00in /  0mm
12:00 70.4 °F /  21.3 °C 55.4 °F /  13 °C 29.96in /  1014.4hPa WSW 10.0mph /  16.1km/h 17.0mph /  27.4km/h 59% 0.00in /  0mm
12:05 71.1 °F /  21.7 °C 55.6 °F /  13.1 °C 29.96in /  1014.4hPa SSW 6.0mph /  9.7km/h 16.0mph /  25.7km/h 58% 0.00in /  0mm
12:09 70.4 °F /  21.3 °C 54.9 °F /  12.7 °C 29.96in /  1014.4hPa West 8.0mph /  12.9km/h 16.0mph /  25.7km/h 58% 0.00in /  0mm
12:14 71.0 °F /  21.7 °C 56.4 °F /  13.6 °C 29.96in /  1014.4hPa West 4.0mph /  6.4km/h 21.0mph /  33.8km/h 60% 0.00in /  0mm
12:19 71.6 °F /  22 °C 57.0 °F /  13.9 °C 29.96in /  1014.4hPa WSW 5.0mph /  8km/h 16.0mph /  25.7km/h 60% 0.00in /  0mm
12:24 71.1 °F /  21.7 °C 57.0 °F /  13.9 °C 29.97in /  1014.8hPa WSW 9.0mph /  14.5km/h 15.0mph /  24.1km/h 61% 0.00in /  0mm
12:29 71.1 °F /  21.7 °C 57.9 °F /  14.4 °C 29.97in /  1014.8hPa WSW 7.0mph /  11.3km/h 15.0mph /  24.1km/h 63% 0.00in /  0mm
12:34 71.4 °F /  21.9 °C 58.1 °F /  14.5 °C 29.97in /  1014.8hPa South 11.0mph /  17.7km/h 18.0mph /  29km/h 63% 0.00in /  0mm
12:39 71.4 °F /  21.9 °C 58.1 °F /  14.5 °C 29.96in /  1014.4hPa WSW 8.0mph /  12.9km/h 18.0mph /  29km/h 63% 0.00in /  0mm
12:44 71.3 °F /  21.8 °C 58.5 °F /  14.7 °C 29.96in /  1014.4hPa WSW 8.0mph /  12.9km/h 16.0mph /  25.7km/h 64% 0.00in /  0mm
12:49 71.2 °F /  21.8 °C 57.5 °F /  14.2 °C 29.96in /  1014.4hPa WSW 9.0mph /  14.5km/h 18.0mph /  29km/h 62% 0.00in /  0mm
12:55 70.8 °F /  21.6 °C 57.6 °F /  14.2 °C 29.95in /  1014.1hPa WSW 6.0mph /  9.7km/h 18.0mph /  29km/h 63% 0.00in /  0mm
13:00 71.3 °F /  21.8 °C 58.1 °F /  14.5 °C 29.95in /  1014.1hPa SW 6.0mph /  9.7km/h 15.0mph /  24.1km/h 63% 0.00in /  0mm
13:04 70.8 °F /  21.6 °C 55.8 °F /  13.2 °C 29.95in /  1014.1hPa SW 10.0mph /  16.1km/h 15.0mph /  24.1km/h 59% 0.00in /  0mm
13:09 70.7 °F /  21.5 °C 54.2 °F /  12.3 °C 29.94in /  1013.8hPa WSW 8.0mph /  12.9km/h 17.0mph /  27.4km/h 56% 0.00in /  0mm
13:14 71.0 °F /  21.7 °C 54.0 °F /  12.2 °C 29.95in /  1014.1hPa WSW 9.0mph /  14.5km/h 17.0mph /  27.4km/h 55% 0.00in /  0mm
13:19 71.4 °F /  21.9 °C 53.4 °F /  11.9 °C 29.94in /  1013.8hPa WSW 9.0mph /  14.5km/h 17.0mph /  27.4km/h 53% 0.00in /  0mm
13:25 72.0 °F /  22.2 °C 54.9 °F /  12.7 °C 29.95in /  1014.1hPa WSW 8.0mph /  12.9km/h 17.0mph /  27.4km/h 55% 0.00in /  0mm
13:30 71.8 °F /  22.1 °C 55.3 °F /  12.9 °C 29.94in /  1013.8hPa WSW 8.0mph /  12.9km/h 18.0mph /  29km/h 56% 0.00in /  0mm
13:34 72.1 °F /  22.3 °C 56.0 °F /  13.3 °C 29.94in /  1013.8hPa WSW 9.0mph /  14.5km/h 18.0mph /  29km/h 57% 0.00in /  0mm
13:40 72.1 °F /  22.3 °C 56.0 °F /  13.3 °C 29.94in /  1013.8hPa SW 8.0mph /  12.9km/h 20.0mph /  32.2km/h 57% 0.00in /  0mm
13:45 71.6 °F /  22 °C 54.1 °F /  12.3 °C 29.94in /  1013.8hPa West 8.0mph /  12.9km/h 17.0mph /  27.4km/h 54% 0.00in /  0mm
13:49 71.3 °F /  21.8 °C 53.8 °F /  12.1 °C 29.94in /  1013.8hPa SW 9.0mph /  14.5km/h 18.0mph /  29km/h 54% 0.00in /  0mm
13:54 70.4 °F /  21.3 °C 54.9 °F /  12.7 °C 29.94in /  1013.8hPa West 9.0mph /  14.5km/h 19.0mph /  30.6km/h 58% 0.00in /  0mm
13:59 71.2 °F /  21.8 °C 55.2 °F /  12.9 °C 29.94in /  1013.8hPa WSW 3.0mph /  4.8km/h 17.0mph /  27.4km/h 57% 0.00in /  0mm
14:04 72.7 °F /  22.6 °C 54.6 °F /  12.6 °C 29.94in /  1013.8hPa WSW 7.0mph /  11.3km/h 17.0mph /  27.4km/h 53% 0.00in /  0mm
14:09 73.1 °F /  22.8 °C 54.9 °F /  12.7 °C 29.93in /  1013.4hPa WSW 7.0mph /  11.3km/h 16.0mph /  25.7km/h 53% 0.00in /  0mm
14:15 73.2 °F /  22.9 °C 55.0 °F /  12.8 °C 29.93in /  1013.4hPa WSW 8.0mph /  12.9km/h 18.0mph /  29km/h 53% 0.00in /  0mm
14:20 72.3 °F /  22.4 °C 54.7 °F /  12.6 °C 29.93in /  1013.4hPa WSW 8.0mph /  12.9km/h 18.0mph /  29km/h 54% 0.00in /  0mm
14:25 72.6 °F /  22.6 °C 53.4 °F /  11.9 °C 29.93in /  1013.4hPa WSW 8.0mph /  12.9km/h 16.0mph /  25.7km/h 51% 0.00in /  0mm
14:30 72.4 °F /  22.4 °C 54.8 °F /  12.7 °C 29.93in /  1013.4hPa SSE 5.0mph /  8km/h 14.0mph /  22.5km/h 54% 0.00in /  0mm
14:34 72.7 °F /  22.6 °C 51.9 °F /  11.1 °C 29.94in /  1013.8hPa SW 8.0mph /  12.9km/h 16.0mph /  25.7km/h 48% 0.00in /  0mm
14:39 72.6 °F /  22.6 °C 52.3 °F /  11.3 °C 29.94in /  1013.8hPa SW 7.0mph /  11.3km/h 18.0mph /  29km/h 49% 0.00in /  0mm
14:44 72.6 °F /  22.6 °C 52.3 °F /  11.3 °C 29.93in /  1013.4hPa WSW 6.0mph /  9.7km/h 16.0mph /  25.7km/h 49% 0.00in /  0mm
14:49 72.8 °F /  22.7 °C 52.0 °F /  11.1 °C 29.93in /  1013.4hPa SW 7.0mph /  11.3km/h 18.0mph /  29km/h 48% 0.00in /  0mm
14:54 72.4 °F /  22.4 °C 54.3 °F /  12.4 °C 29.92in /  1013.1hPa SE 8.0mph /  12.9km/h 20.0mph /  32.2km/h 53% 0.00in /  0mm
14:59 72.4 °F /  22.4 °C 53.8 °F /  12.1 °C 29.93in /  1013.4hPa WSW 10.0mph /  16.1km/h 22.0mph /  35.4km/h 52% 0.00in /  0mm
15:04 72.7 °F /  22.6 °C 54.6 °F /  12.6 °C 29.92in /  1013.1hPa WSW 10.0mph /  16.1km/h 22.0mph /  35.4km/h 53% 0.00in /  0mm
15:09 73.0 °F /  22.8 °C 55.9 °F /  13.3 °C 29.92in /  1013.1hPa WSW 9.0mph /  14.5km/h 18.0mph /  29km/h 55% 0.00in /  0mm
15:15 73.0 °F /  22.8 °C 56.4 °F /  13.6 °C 29.92in /  1013.1hPa SSW 10.0mph /  16.1km/h 16.0mph /  25.7km/h 56% 0.00in /  0mm
15:19 72.8 °F /  22.7 °C 55.2 °F /  12.9 °C 29.92in /  1013.1hPa WSW 10.0mph /  16.1km/h 23.0mph /  37km/h 54% 0.00in /  0mm
15:25 72.9 °F /  22.7 °C 55.3 °F /  12.9 °C 29.92in /  1013.1hPa SSW 7.0mph /  11.3km/h 25.0mph /  40.2km/h 54% 0.00in /  0mm
15:29 72.9 °F /  22.7 °C 54.2 °F /  12.3 °C 29.92in /  1013.1hPa WSW 11.0mph /  17.7km/h 25.0mph /  40.2km/h 52% 0.00in /  0mm
15:34 73.1 °F /  22.8 °C 54.4 °F /  12.4 °C 29.92in /  1013.1hPa WSW 10.0mph /  16.1km/h 24.0mph /  38.6km/h 52% 0.00in /  0mm
15:40 72.9 °F /  22.7 °C 52.1 °F /  11.2 °C 29.92in /  1013.1hPa WSW 11.0mph /  17.7km/h 25.0mph /  40.2km/h 48% 0.00in /  0mm
15:44 73.9 °F /  23.3 °C 54.1 °F /  12.3 °C 29.92in /  1013.1hPa West 11.0mph /  17.7km/h 25.0mph /  40.2km/h 50% 0.00in /  0mm
15:50 73.4 °F /  23 °C 53.6 °F /  12 °C 29.92in /  1013.1hPa West 10.0mph /  16.1km/h 24.0mph /  38.6km/h 50% 0.00in /  0mm
15:55 72.4 °F /  22.4 °C 52.2 °F /  11.2 °C 29.92in /  1013.1hPa WSW 14.0mph /  22.5km/h 25.0mph /  40.2km/h 49% 0.00in /  0mm
15:59 70.7 °F /  21.5 °C 53.2 °F /  11.8 °C 29.92in /  1013.1hPa WSW 11.0mph /  17.7km/h 25.0mph /  40.2km/h 54% 0.00in /  0mm
16:04 70.5 °F /  21.4 °C 55.0 °F /  12.8 °C 29.94in /  1013.8hPa WSW 10.0mph /  16.1km/h 22.0mph /  35.4km/h 58% 0.00in /  0mm
16:09 68.5 °F /  20.3 °C 53.1 °F /  11.7 °C 29.94in /  1013.8hPa WNW 8.0mph /  12.9km/h 21.0mph /  33.8km/h 58% 0.00in /  0mm
16:14 68.7 °F /  20.4 °C 54.3 °F /  12.4 °C 29.94in /  1013.8hPa WNW 7.0mph /  11.3km/h 15.0mph /  24.1km/h 60% 0.00in /  0mm
16:19 69.7 °F /  20.9 °C 53.3 °F /  11.8 °C 29.93in /  1013.4hPa NNW 6.0mph /  9.7km/h 14.0mph /  22.5km/h 56% 0.00in /  0mm
16:24 69.5 °F /  20.8 °C 52.6 °F /  11.4 °C 29.94in /  1013.8hPa West 10.0mph /  16.1km/h 17.0mph /  27.4km/h 55% 0.00in /  0mm
16:29 69.8 °F /  21 °C 52.9 °F /  11.6 °C 29.94in /  1013.8hPa WNW 9.0mph /  14.5km/h 17.0mph /  27.4km/h 55% 0.00in /  0mm
16:34 70.2 °F /  21.2 °C 53.8 °F /  12.1 °C 29.94in /  1013.8hPa WNW 8.0mph /  12.9km/h 15.0mph /  24.1km/h 56% 0.00in /  0mm
16:39 69.8 °F /  21 °C 52.9 °F /  11.6 °C 29.94in /  1013.8hPa West 6.0mph /  9.7km/h 15.0mph /  24.1km/h 55% 0.00in /  0mm
16:44 70.1 °F /  21.2 °C 53.2 °F /  11.8 °C 29.94in /  1013.8hPa West 6.0mph /  9.7km/h 10.0mph /  16.1km/h 55% 0.00in /  0mm
16:49 70.6 °F /  21.4 °C 53.6 °F /  12 °C 29.93in /  1013.4hPa West 7.0mph /  11.3km/h 10.0mph /  16.1km/h 55% 0.00in /  0mm
16:54 70.8 °F /  21.6 °C 53.8 °F /  12.1 °C 29.93in /  1013.4hPa West 4.0mph /  6.4km/h 13.0mph /  20.9km/h 55% 0.00in /  0mm
16:59 70.9 °F /  21.6 °C 52.9 °F /  11.6 °C 29.93in /  1013.4hPa West 6.0mph /  9.7km/h 15.0mph /  24.1km/h 53% 0.00in /  0mm
17:04 69.9 °F /  21.1 °C 52.0 °F /  11.1 °C 29.93in /  1013.4hPa WSW 8.0mph /  12.9km/h 16.0mph /  25.7km/h 53% 0.00in /  0mm
17:09 69.5 °F /  20.8 °C 51.6 °F /  10.9 °C 29.94in /  1013.8hPa WSW 8.0mph /  12.9km/h 16.0mph /  25.7km/h 53% 0.00in /  0mm
17:14 69.0 °F /  20.6 °C 52.2 °F /  11.2 °C 29.94in /  1013.8hPa WSW 7.0mph /  11.3km/h 15.0mph /  24.1km/h 55% 0.00in /  0mm
17:19 69.4 °F /  20.8 °C 52.0 °F /  11.1 °C 29.94in /  1013.8hPa WSW 9.0mph /  14.5km/h 19.0mph /  30.6km/h 54% 0.00in /  0mm
17:24 69.7 °F /  20.9 °C 52.8 °F /  11.6 °C 29.94in /  1013.8hPa WSW 7.0mph /  11.3km/h 16.0mph /  25.7km/h 55% 0.00in /  0mm
17:29 70.0 °F /  21.1 °C 51.0 °F /  10.6 °C 29.94in /  1013.8hPa West 10.0mph /  16.1km/h 15.0mph /  24.1km/h 51% 0.00in /  0mm
17:34 70.3 °F /  21.3 °C 49.1 °F /  9.5 °C 29.94in /  1013.8hPa NW 4.0mph /  6.4km/h 13.0mph /  20.9km/h 47% 0.00in /  0mm
17:39 69.3 °F /  20.7 °C 49.9 °F /  9.9 °C 29.94in /  1013.8hPa West 7.0mph /  11.3km/h 16.0mph /  25.7km/h 50% 0.00in /  0mm
17:44 68.4 °F /  20.2 °C 50.1 °F /  10.1 °C 29.94in /  1013.8hPa West 7.0mph /  11.3km/h 15.0mph /  24.1km/h 52% 0.00in /  0mm
17:49 68.2 °F /  20.1 °C 50.4 °F /  10.2 °C 29.94in /  1013.8hPa WNW 13.0mph /  20.9km/h 16.0mph /  25.7km/h 53% 0.00in /  0mm
17:54 68.6 °F /  20.3 °C 51.3 °F /  10.7 °C 29.94in /  1013.8hPa WSW 6.0mph /  9.7km/h 13.0mph /  20.9km/h 54% 0.00in /  0mm
17:59 68.6 °F /  20.3 °C 50.8 °F /  10.4 °C 29.94in /  1013.8hPa West 7.0mph /  11.3km/h 16.0mph /  25.7km/h 53% 0.00in /  0mm
18:04 68.7 °F /  20.4 °C 51.4 °F /  10.8 °C 29.94in /  1013.8hPa West 8.0mph /  12.9km/h 16.0mph /  25.7km/h 54% 0.00in /  0mm
18:09 69.0 °F /  20.6 °C 52.2 °F /  11.2 °C 29.94in /  1013.8hPa West 6.0mph /  9.7km/h 16.0mph /  25.7km/h 55% 0.00in /  0mm
18:14 68.5 °F /  20.3 °C 52.2 °F /  11.2 °C 29.94in /  1013.8hPa West 5.0mph /  8km/h 11.0mph /  17.7km/h 56% 0.00in /  0mm
18:20 67.8 °F /  19.9 °C 53.4 °F /  11.9 °C 29.95in /  1014.1hPa WSW 6.0mph /  9.7km/h 14.0mph /  22.5km/h 60% 0.00in /  0mm
18:25 67.4 °F /  19.7 °C 53.5 °F /  11.9 °C 29.94in /  1013.8hPa West 7.0mph /  11.3km/h 18.0mph /  29km/h 61% 0.00in /  0mm
18:29 67.4 °F /  19.7 °C 53.9 °F /  12.2 °C 29.95in /  1014.1hPa WSW 3.0mph /  4.8km/h 13.0mph /  20.9km/h 62% 0.00in /  0mm
18:34 68.0 °F /  20 °C 53.6 °F /  12 °C 29.95in /  1014.1hPa WSW 6.0mph /  9.7km/h 19.0mph /  30.6km/h 60% 0.00in /  0mm
18:39 68.2 °F /  20.1 °C 53.8 °F /  12.1 °C 29.95in /  1014.1hPa SW 9.0mph /  14.5km/h 15.0mph /  24.1km/h 60% 0.00in /  0mm
18:44 67.5 °F /  19.7 °C 54.0 °F /  12.2 °C 29.95in /  1014.1hPa WNW 6.0mph /  9.7km/h 16.0mph /  25.7km/h 62% 0.00in /  0mm
18:49 67.4 °F /  19.7 °C 54.4 °F /  12.4 °C 29.95in /  1014.1hPa WSW 8.0mph /  12.9km/h 17.0mph /  27.4km/h 63% 0.00in /  0mm
18:54 68.0 °F /  20 °C 54.5 °F /  12.5 °C 29.95in /  1014.1hPa WSW 8.0mph /  12.9km/h 19.0mph /  30.6km/h 62% 0.00in /  0mm
18:59 68.3 °F /  20.2 °C 54.8 °F /  12.7 °C 29.94in /  1013.8hPa WSW 8.0mph /  12.9km/h 19.0mph /  30.6km/h 62% 0.00in /  0mm
19:04 68.0 °F /  20 °C 54.0 °F /  12.2 °C 29.95in /  1014.1hPa WSW 8.0mph /  12.9km/h 18.0mph /  29km/h 61% 0.00in /  0mm
19:09 67.9 °F /  19.9 °C 54.0 °F /  12.2 °C 29.95in /  1014.1hPa WSW 14.0mph /  22.5km/h 15.0mph /  24.1km/h 61% 0.00in /  0mm
19:14 67.7 °F /  19.8 °C 53.8 °F /  12.1 °C 29.95in /  1014.1hPa West 5.0mph /  8km/h 14.0mph /  22.5km/h 61% 0.00in /  0mm
19:19 67.7 °F /  19.8 °C 54.2 °F /  12.3 °C 29.95in /  1014.1hPa WSW 9.0mph /  14.5km/h 17.0mph /  27.4km/h 62% 0.00in /  0mm
19:24 67.5 °F /  19.7 °C 54.0 °F /  12.2 °C 29.95in /  1014.1hPa WSW 8.0mph /  12.9km/h 17.0mph /  27.4km/h 62% 0.00in /  0mm
19:29 67.4 °F /  19.7 °C 54.4 °F /  12.4 °C 29.95in /  1014.1hPa WSW 8.0mph /  12.9km/h 18.0mph /  29km/h 63% 0.00in /  0mm
19:34 67.4 °F /  19.7 °C 54.4 °F /  12.4 °C 29.95in /  1014.1hPa WSW 7.0mph /  11.3km/h 18.0mph /  29km/h 63% 0.00in /  0mm
19:39 67.4 °F /  19.7 °C 54.8 °F /  12.7 °C 29.95in /  1014.1hPa WSW 7.0mph /  11.3km/h 14.0mph /  22.5km/h 64% 0.00in /  0mm
19:44 67.4 °F /  19.7 °C 54.8 °F /  12.7 °C 29.95in /  1014.1hPa West 6.0mph /  9.7km/h 16.0mph /  25.7km/h 64% 0.00in /  0mm
19:49 67.0 °F /  19.4 °C 54.4 °F /  12.4 °C 29.95in /  1014.1hPa SW 6.0mph /  9.7km/h 15.0mph /  24.1km/h 64% 0.00in /  0mm
19:54 67.0 °F /  19.4 °C 54.4 °F /  12.4 °C 29.95in /  1014.1hPa WSW 6.0mph /  9.7km/h 13.0mph /  20.9km/h 64% 0.00in /  0mm
19:59 67.0 °F /  19.4 °C 54.4 °F /  12.4 °C 29.95in /  1014.1hPa SW 7.0mph /  11.3km/h 12.0mph /  19.3km/h 64% 0.00in /  0mm
20:04 66.8 °F /  19.3 °C 54.2 °F /  12.3 °C 29.96in /  1014.4hPa West 11.0mph /  17.7km/h 14.0mph /  22.5km/h 64% 0.00in /  0mm
20:09 66.6 °F /  19.2 °C 54.0 °F /  12.2 °C 29.96in /  1014.4hPa West 3.0mph /  4.8km/h 14.0mph /  22.5km/h 64% 0.00in /  0mm
20:14 66.5 °F /  19.2 °C 54.4 °F /  12.4 °C 29.96in /  1014.4hPa WNW 6.0mph /  9.7km/h 13.0mph /  20.9km/h 65% 0.00in /  0mm
20:19 66.3 °F /  19.1 °C 54.6 °F /  12.6 °C 29.96in /  1014.4hPa West 7.0mph /  11.3km/h 14.0mph /  22.5km/h 66% 0.00in /  0mm
20:24 66.4 °F /  19.1 °C 54.3 °F /  12.4 °C 29.96in /  1014.4hPa WSW 6.0mph /  9.7km/h 14.0mph /  22.5km/h 65% 0.00in /  0mm
20:29 66.4 °F /  19.1 °C 54.3 °F /  12.4 °C 29.96in /  1014.4hPa WSW 6.0mph /  9.7km/h 12.0mph /  19.3km/h 65% 0.00in /  0mm
20:34 66.4 °F /  19.1 °C 53.4 °F /  11.9 °C 29.96in /  1014.4hPa West 6.0mph /  9.7km/h 13.0mph /  20.9km/h 63% 0.00in /  0mm
20:39 66.3 °F /  19.1 °C 53.3 °F /  11.8 °C 29.96in /  1014.4hPa West 5.0mph /  8km/h 13.0mph /  20.9km/h 63% 0.00in /  0mm
20:44 66.1 °F /  18.9 °C 53.6 °F /  12 °C 29.96in /  1014.4hPa SW 5.0mph /  8km/h 11.0mph /  17.7km/h 64% 0.00in /  0mm
20:49 65.8 °F /  18.8 °C 53.7 °F /  12.1 °C 29.96in /  1014.4hPa West 5.0mph /  8km/h 11.0mph /  17.7km/h 65% 0.00in /  0mm
20:54 65.6 °F /  18.7 °C 53.9 °F /  12.2 °C 29.96in /  1014.4hPa WSW 2.0mph /  3.2km/h 8.0mph /  12.9km/h 66% 0.00in /  0mm
20:59 65.4 °F /  18.6 °C 54.2 °F /  12.3 °C 29.96in /  1014.4hPa WSW 4.0mph /  6.4km/h 8.0mph /  12.9km/h 67% 0.00in /  0mm
21:04 65.2 °F /  18.4 °C 54.0 °F /  12.2 °C 29.96in /  1014.4hPa West 5.0mph /  8km/h 9.0mph /  14.5km/h 67% 0.00in /  0mm
21:09 65.1 °F /  18.4 °C 54.3 °F /  12.4 °C 29.96in /  1014.4hPa WNW 3.0mph /  4.8km/h 7.0mph /  11.3km/h 68% 0.00in /  0mm
21:14 64.8 °F /  18.2 °C 54.0 °F /  12.2 °C 29.96in /  1014.4hPa West 5.0mph /  8km/h 7.0mph /  11.3km/h 68% 0.00in /  0mm
21:19 64.8 °F /  18.2 °C 54.0 °F /  12.2 °C 29.97in /  1014.8hPa West 3.0mph /  4.8km/h 7.0mph /  11.3km/h 68% 0.00in /  0mm
21:24 64.6 °F /  18.1 °C 54.2 °F /  12.3 °C 29.97in /  1014.8hPa West 3.0mph /  4.8km/h 7.0mph /  11.3km/h 69% 0.00in /  0mm
21:29 64.4 °F /  18 °C 54.0 °F /  12.2 °C 29.97in /  1014.8hPa West 3.0mph /  4.8km/h 7.0mph /  11.3km/h 69% 0.00in /  0mm
21:34 64.3 °F /  17.9 °C 53.9 °F /  12.2 °C 29.97in /  1014.8hPa West 3.0mph /  4.8km/h 7.0mph /  11.3km/h 69% 0.00in /  0mm
21:39 64.4 °F /  18 °C 54.0 °F /  12.2 °C 29.97in /  1014.8hPa WSW 1.0mph /  1.6km/h 5.0mph /  8km/h 69% 0.00in /  0mm
21:44 64.5 °F /  18.1 °C 54.1 °F /  12.3 °C 29.97in /  1014.8hPa West 2.0mph /  3.2km/h 7.0mph /  11.3km/h 69% 0.00in /  0mm
21:49 64.5 °F /  18.1 °C 54.1 °F /  12.3 °C 29.97in /  1014.8hPa West 3.0mph /  4.8km/h 8.0mph /  12.9km/h 69% 0.00in /  0mm
21:54 64.6 °F /  18.1 °C 54.2 °F /  12.3 °C 29.97in /  1014.8hPa WSW 3.0mph /  4.8km/h 8.0mph /  12.9km/h 69% 0.00in /  0mm
21:59 64.6 °F /  18.1 °C 54.6 °F /  12.6 °C 29.97in /  1014.8hPa West 3.0mph /  4.8km/h 8.0mph /  12.9km/h 70% 0.00in /  0mm
22:04 64.5 °F /  18.1 °C 54.5 °F /  12.5 °C 29.98in /  1015.1hPa Calm   6.0mph /  9.7km/h 70% 0.00in /  0mm
22:09 64.4 °F /  18 °C 54.4 °F /  12.4 °C 29.98in /  1015.1hPa WNW 1.0mph /  1.6km/h 6.0mph /  9.7km/h 70% 0.00in /  0mm
22:14 64.2 °F /  17.9 °C 54.2 °F /  12.3 °C 29.98in /  1015.1hPa WSW 5.0mph /  8km/h 7.0mph /  11.3km/h 70% 0.00in /  0mm
22:19 64.3 °F /  17.9 °C 53.9 °F /  12.2 °C 29.98in /  1015.1hPa West 4.0mph /  6.4km/h 9.0mph /  14.5km/h 69% 0.00in /  0mm
22:24 64.5 °F /  18.1 °C 53.3 °F /  11.8 °C 29.98in /  1015.1hPa WSW 4.0mph /  6.4km/h 9.0mph /  14.5km/h 67% 0.00in /  0mm
22:29 64.6 °F /  18.1 °C 53.0 °F /  11.7 °C 29.98in /  1015.1hPa West 4.0mph /  6.4km/h 8.0mph /  12.9km/h 66% 0.00in /  0mm
22:34 64.6 °F /  18.1 °C 53.0 °F /  11.7 °C 29.98in /  1015.1hPa SW 4.0mph /  6.4km/h 6.0mph /  9.7km/h 66% 0.00in /  0mm
22:39 64.7 °F /  18.2 °C 52.7 °F /  11.5 °C 29.98in /  1015.1hPa West 4.0mph /  6.4km/h 6.0mph /  9.7km/h 65% 0.00in /  0mm
22:44 64.5 °F /  18.1 °C 52.5 °F /  11.4 °C 29.98in /  1015.1hPa West 3.0mph /  4.8km/h 9.0mph /  14.5km/h 65% 0.00in /  0mm
22:49 64.6 °F /  18.1 °C 52.1 °F /  11.2 °C 29.98in /  1015.1hPa West 3.0mph /  4.8km/h 9.0mph /  14.5km/h 64% 0.00in /  0mm
22:54 64.5 °F /  18.1 °C 52.0 °F /  11.1 °C 29.98in /  1015.1hPa West 3.0mph /  4.8km/h 8.0mph /  12.9km/h 64% 0.00in /  0mm
22:59 64.5 °F /  18.1 °C 51.6 °F /  10.9 °C 29.98in /  1015.1hPa West 4.0mph /  6.4km/h 8.0mph /  12.9km/h 63% 0.00in /  0mm
23:04 64.5 °F /  18.1 °C 52.0 °F /  11.1 °C 29.98in /  1015.1hPa West 4.0mph /  6.4km/h 9.0mph /  14.5km/h 64% 0.00in /  0mm
23:09 64.4 °F /  18 °C 52.0 °F /  11.1 °C 29.98in /  1015.1hPa West 3.0mph /  4.8km/h 6.0mph /  9.7km/h 64% 0.00in /  0mm
23:14 64.4 °F /  18 °C 52.0 °F /  11.1 °C 29.98in /  1015.1hPa West 4.0mph /  6.4km/h 8.0mph /  12.9km/h 64% 0.00in /  0mm
23:19 64.3 °F /  17.9 °C 51.9 °F /  11.1 °C 29.98in /  1015.1hPa WSW 3.0mph /  4.8km/h 10.0mph /  16.1km/h 64% 0.00in /  0mm
23:24 64.3 °F /  17.9 °C 51.9 °F /  11.1 °C 29.98in /  1015.1hPa WSW 3.0mph /  4.8km/h 6.0mph /  9.7km/h 64% 0.00in /  0mm
23:29 64.3 °F /  17.9 °C 52.3 °F /  11.3 °C 29.98in /  1015.1hPa WSW 5.0mph /  8km/h 5.0mph /  8km/h 65% 0.00in /  0mm
23:34 64.3 °F /  17.9 °C 52.3 °F /  11.3 °C 29.98in /  1015.1hPa WSW 4.0mph /  6.4km/h 9.0mph /  14.5km/h 65% 0.00in /  0mm
23:39 64.3 °F /  17.9 °C 52.3 °F /  11.3 °C 29.98in /  1015.1hPa West 6.0mph /  9.7km/h 9.0mph /  14.5km/h 65% 0.00in /  0mm
23:44 64.3 °F /  17.9 °C 52.3 °F /  11.3 °C 29.98in /  1015.1hPa West 4.0mph /  6.4km/h 9.0mph /  14.5km/h 65% 0.00in /  0mm
23:49 64.2 °F /  17.9 °C 52.2 °F /  11.2 °C 29.98in /  1015.1hPa West 4.0mph /  6.4km/h 9.0mph /  14.5km/h 65% 0.00in /  0mm
23:54 64.2 °F /  17.9 °C 52.2 °F /  11.2 °C 29.98in /  1015.1hPa West 4.0mph /  6.4km/h 11.0mph /  17.7km/h 65% 0.00in /  0mm
23:59 64.2 °F /  17.9 °C 51.8 °F /  11 °C 29.98in /  1015.1hPa WSW 5.0mph /  8km/h 11.0mph /  17.7km/h 64% 0.00in /  0mm
Buffalo, New York, USA
Compliments of Weather Underground - 2.5 mb